WetterOnline ( https://www.wetteronline.de )

Wetter aktuell Augsburg

Aktuelles Wetter: Augsburg/Mühlhausen (477m)

6-stündlich | Neueste Meldungen
Ortszeit Temperatur Wetter
Mi, 24.04. 2:00 8.0° C bewölkt
Di, 23.04. 20:00 17.5° C bedeckt
Di, 23.04. 14:00 19.3° C bedeckt
Di, 23.04. 8:00 10.3° C leicht bewölkt
Di, 23.04. 2:00 13.1° C wolkig
Mo, 22.04. 20:00 18.4° C wolkig
Mo, 22.04. 14:00 21.0° C leicht bewölkt
Mo, 22.04. 8:00 9.0° C wolkenlos
Ortszeit Temperatur Wetter
Mi, 24.04. 4:30 6.7° C fast wolkenlos
Mi, 24.04. 4:20 6.7° C fast wolkenlos
Mi, 24.04. 4:10 6.3° C leicht bewölkt
Mi, 24.04. 4:00 6.0° C wolkig
Mi, 24.04. 3:50 6.0° C wolkig
Mi, 24.04. 3:40 7.0° C wolkig
Mi, 24.04. 3:30 6.7° C fast wolkenlos
Mi, 24.04. 3:00 7.2° C wolkenlos
Mi, 24.04. 2:30 8.6° C leicht bewölkt
Mi, 24.04. 2:00 8.0° C bewölkt
Mi, 24.04. 1:30 10.0° C bedeckt
Ortszeit Relative Feuchte Sichtweite
Mi, 24.04. 2:00 80% 27 km
Di, 23.04. 20:00 48% 45 km
Di, 23.04. 14:00 42% 29 km
Di, 23.04. 8:00 65% 24 km
Di, 23.04. 2:00 52% 30 km
Mo, 22.04. 20:00 29% 70 km
Mo, 22.04. 14:00 31% 8 km
Mo, 22.04. 8:00 56% 35 km
Ortszeit Relative Feuchte Sichtweite
Mi, 24.04. 4:30 86% 28 km
Mi, 24.04. 4:20 86% -
Mi, 24.04. 4:10 88% -
Mi, 24.04. 4:00 89% 24 km
Mi, 24.04. 3:50 89% -
Mi, 24.04. 3:40 87% -
Mi, 24.04. 3:30 86% 26 km
Mi, 24.04. 3:00 80% 26 km
Mi, 24.04. 2:30 79% 30 km
Mi, 24.04. 2:00 80% 27 km
Mi, 24.04. 1:30 77% 35 km
Ortszeit Niederschlagsmenge Niederschlagsart
Mi, 24.04. 2:00 0.0 l/m2 in 6 Std. -
Di, 23.04. 20:00 0.0 l/m2 in 12 Std. -
Di, 23.04. 14:00 0.0 l/m2 in 6 Std. -
Di, 23.04. 8:00 0.0 l/m2 in 12 Std. -
Di, 23.04. 2:00 0.0 l/m2 in 6 Std. -
Mo, 22.04. 20:00 0.0 l/m2 in 12 Std. -
Mo, 22.04. 14:00 0.0 l/m2 in 6 Std. -
Mo, 22.04. 8:00 0.0 l/m2 in 12 Std. -
Ortszeit Niederschlagsmenge Niederschlagsart
Mi, 24.04. 4:30 0.0 l/m2 in 1 Std. -
Mi, 24.04. 4:20 keine Meldung -
Mi, 24.04. 4:10 keine Meldung -
Mi, 24.04. 4:00 0.0 l/m2 in 1 Std. -
Mi, 24.04. 3:50 keine Meldung -
Mi, 24.04. 3:40 keine Meldung -
Mi, 24.04. 3:30 0.0 l/m2 in 1 Std. -
Mi, 24.04. 3:00 0.0 l/m2 in 1 Std. -
Mi, 24.04. 2:30 0.0 l/m2 in 1 Std. -
Mi, 24.04. 2:00 0.0 l/m2 in 1 Std. -
Mi, 24.04. 1:30 0.0 l/m2 in 1 Std. -
Ortszeit Stärke Spitze Richtung
km/h Bft. km/h Grad Sektor
Mi, 24.04. 2:00 6 1 41 40° NO
Di, 23.04. 20:00 30 5 44 100° O
Di, 23.04. 14:00 18 3 29 120° SO
Di, 23.04. 8:00 7 2 22 90° O
Di, 23.04. 2:00 13 3 48 80° O
Mo, 22.04. 20:00 14 3 40 110° O
Mo, 22.04. 14:00 28 4 41 100° O
Mo, 22.04. 8:00 6 1 17 350° N
Ortszeit Stärke Spitze Richtung
km/h Bft. km/h Grad Sektor
Mi, 24.04. 4:30 6 1 9 70° O
Mi, 24.04. 4:20 6 1 - 70° O
Mi, 24.04. 4:10 7 2 - 60° NO
Mi, 24.04. 4:00 4 1 7 70° O
Mi, 24.04. 3:50 4 1 - 70° O
Mi, 24.04. 3:40 6 1 - 50° NO
Mi, 24.04. 3:30 7 2 7 20° N
Mi, 24.04. 3:00 4 1 14 350° N
Mi, 24.04. 2:30 9 2 13 90° O
Mi, 24.04. 2:00 6 1 11 40° NO
Mi, 24.04. 1:30 6 1 9 60° NO
Ortszeit Untergrenze Bedeckung Gattung
total tief tief mittel hoch
Mi, 24.04. 2:00 3600 m 7/8 6/8 - - -
Di, 23.04. 20:00 3600 m 8/8 8/8 - - -
Di, 23.04. 14:00 2100 m 8/8 8/8 - - -
Di, 23.04. 8:00 5700 m 5/8 2/8 - - -
Di, 23.04. 2:00 8700 m 8/8 0/8 - - -
Mo, 22.04. 20:00 8100 m 8/8 0/8 - - -
Mo, 22.04. 14:00 7500 m 8/8 0/8 - - -
Mo, 22.04. 8:00 - 0/8 0/8 - - -
Ortszeit Bedeckungsgrad in Achtel und Wolkenuntergrenze
Mi, 24.04. 4:30 2(7200m)
Mi, 24.04. 4:20 2(7200m)
Mi, 24.04. 4:10 4(7200m)
Mi, 24.04. 4:00 8(7200m)
Mi, 24.04. 3:50 8(7200m)
Mi, 24.04. 3:40 7(7200m)
Mi, 24.04. 3:30 2(7500m)
Mi, 24.04. 3:00 keine Wolken
Mi, 24.04. 2:30 1(4500m)
Mi, 24.04. 2:00 7(3600m) 6(4500m)
Mi, 24.04. 1:30 8(3600m)
Ortszeit Luftdruck NN (hPa) Tendenz (hPa in 3 Std.)
Mi, 24.04. 2:00 1002 + 0,6
Di, 23.04. 20:00 998 + 0,3
Di, 23.04. 14:00 998 - 0,6
Di, 23.04. 8:00 1000 - 0,4
Di, 23.04. 2:00 1002 - 1,2
Mo, 22.04. 20:00 1003 - 1,2
Mo, 22.04. 14:00 1006 - 2,2
Mo, 22.04. 8:00 1013 - 0,8
Ortszeit Luftdruck NN (hPa) Tendenz (hPa in 3 Std.)
Mi, 24.04. 4:30 1003 + 0,6
Mi, 24.04. 4:20 1003 keine Meldung
Mi, 24.04. 4:10 1003 keine Meldung
Mi, 24.04. 4:00 1003 + 0,6
Mi, 24.04. 3:50 1003 keine Meldung
Mi, 24.04. 3:40 1003 keine Meldung
Mi, 24.04. 3:30 1003 + 0,4
Mi, 24.04. 3:00 1002 + 0,5
Mi, 24.04. 2:30 1002 + 0,5
Mi, 24.04. 2:00 1002 + 0,6
Mi, 24.04. 1:30 1002 + 0,8
Ortszeit Schneehöhe (cm)
Mi, 24.04. 2:00 0
Di, 23.04. 20:00 0
Di, 23.04. 14:00 0
Di, 23.04. 8:00 0
Di, 23.04. 2:00 0
Mo, 22.04. 20:00 0
Mo, 22.04. 14:00 0
Mo, 22.04. 8:00 0
Ortszeit Schneehöhe (cm)
Mi, 24.04. 4:30 0
Mi, 24.04. 4:20 0
Mi, 24.04. 4:10 0
Mi, 24.04. 4:00 0
Mi, 24.04. 3:50 0
Mi, 24.04. 3:40 0
Mi, 24.04. 3:30 0
Mi, 24.04. 3:00 0
Mi, 24.04. 2:30 0
Mi, 24.04. 2:00 0
Mi, 24.04. 1:30 0
Link zu dieser Seite / Seite empfehlen

Das Wetter in ...